METAR / TAF

La liste des METAR et des TAF n’est pas destinée pour un briefing météo pour des raisons techniques (disponibilité, cycle de renouvellement). Il faut plutôt utiliser le skybriefing de Skyguide ou le TAMSI (plateforme de self-briefing météo conçue par MétéoSuisse pour les entreprises dans le domaine de l’aéronautique, questions et demandes d’informations à 

Formulaire de contact

 

METAR Suisse

METAR     LSZH 201550Z 26005KT 230V290 9999 FEW050TCU FEW060 SCT120
               BKN220 26/11 Q1013 TEMPO SHRA=
METAR     LSZH 201620Z 27007KT 9999 FEW050TCU FEW060 SCT110 BKN120
               25/10 Q1013 TEMPO SHRA=
METAR     LSGG 201550Z 03011KT 9999 VCTS FEW050TCU SCT070CB BKN080
               25/15 Q1012 TEMPO 4500 TSRA=
METAR     LSGG 201620Z 36009G20KT 9999 -TSRA FEW030 SCT050CB BKN070
               22/14 Q1013 RETS BECMG 4500 TSRA=
METAR     LFSB 201600Z NIL=
METAR     LSZB 201550Z 10004KT 060V140 9999 FEW035 SCT090 BKN110TCU
               21/18 Q1014 NOSIG=
METAR     LSZB 201620Z VRB03KT 9999 FEW080 BKN110 22/16 Q1014 NOSIG=
METAR     LSZA 201550Z 17003KT 9999 FEW050TCU BKN160 27/20 Q1011
               NOSIG=
METAR     LSZA 201620Z VRB02KT 9999 FEW050TCU BKN160 27/20 Q1011
               NOSIG=
METAR     LSZG 201550Z 22004KT 180V300 9999 FEW080 BKN100 BKN120
               //////TCU 22/18 Q1013 NOSIG=
METAR     LSZG 201620Z VRB02KT 9999 BKN060 BKN110 22/18 Q1013 NOSIG=
METAR     LSZR 201550Z 36005KT 9999 VCTS FEW050CB 27/16 Q1012 NOSIG
               RMK M=
METAR     LSZR 201620Z 36005KT 9999 VCTS FEW050CB 27/16 Q1012 NOSIG
               RMK M=
METAR     LSGS 201550Z 23010KT 200V270 9999 SCT120TCU SCT200 28/13
               Q1011=
METAR     LSGS 201620Z AUTO 24007KT 200V280 9999 //////TCU 27/14
               Q1011=
METAR     LSGC 201550Z AUTO 27004KT 230V300 9999 BKN130 //////TCU
               17/15 Q1016=
METAR     LSGC 201620Z AUTO VRB02KT 9999 FEW120 BKN140 //////TCU
               17/15 Q1016=
METAR     LSZC 201550Z AUTO 19010KT 160V240 9999 SCT090 BKN110
               SCT///CB 20/16 Q1015 REDZ=
METAR     LSZC 201620Z AUTO VRB02KT 9999 -RA BKN090 BKN110
               //////TCU 20/16 Q1015=
METAR     LSZL 201550Z AUTO 28003KT 240V320 9999NDV SCT057 28/20
               Q1011 RMK=
METAR     LSZL 201620Z NIL=
METAR     LSZS 201550Z 06006KT 030V100 9999 SCT052 SCT078 15/11
               Q1019 RMK V=
METAR     LSZS 201620Z VRB01KT 9999 SCT052 BKN110 16/14 Q1019 RMK W=
METAR     LSMA 201550Z AUTO 20004KT 160V230 9999NDV FEW029 BKN088
               BKN100 20/19 Q1014 RMK=
METAR     LSMA 201620Z NIL=
METAR     LSMD 201550Z AUTO 28003KT 240V330 9999NDV SCT110 27/11
               Q1013 RMK=
METAR     LSMD 201620Z NIL=
METAR RRB LSME 201620Z AUTO 21005KT 160V240 9999NDV -RA FEW064
               BKN100 23/16 Q1014 RMK=
METAR     LSME 201550Z NIL=
METAR RRA LSMM 201550Z AUTO 30010G20KT 240V010 4800NDV SHRA FEW024
               SCT032 OVC055 19/16 Q1016 RMK=
METAR     LSMM 201620Z NIL=
METAR     LSMP 201550Z AUTO 00000KT 9999NDV FEW110 24/15 Q1013 RMK=
METAR     LSMP 201620Z NIL=
METAR     LSMS 201550Z 23010KT 200V270 9999 SCT120TCU SCT200 28/13
               Q1011 RMK BLU+=
METAR     LSMS 201620Z AUTO 24007KT 200V280 9999 //////TCU 27/14
               Q1011=
Actualisé le vendredi 20 juillet 2018 à 18h34

TAF Suisse

TAF     LSZH 201425Z 2015/2121 27005KT 9999 FEW060 BKN130
             TX27/2015Z TN16/2104Z TX22/2114Z TEMPO 2015/2024
             SCT050CB PROB40 TEMPO 2015/2024 24015G30KT 3000 TSRA
             TEMPO 2100/2118 SHRA SCT025TCU PROB40 TEMPO 2105/2111
             24015G25KT 3000 TSRA SCT030CB=
TAF     LSGG 201425Z 2015/2121 24006KT 9999 FEW050TCU BKN110
             TX30/2015Z TN17/2104Z TX24/2114Z PROB40 TEMPO
             2015/2017 33015KT TS FEW060CB TEMPO 2018/2022
             VRB15G30KT 4000 TSRA SCT050CB BECMG 2100/2102 RA
             BKN050 PROB30 TEMPO 2100/2109 TSRA SCT045CB=
TAF     LFSB 201100Z 2012/2112 32005KT 9999 FEW070CB TEMPO
             2012/2015 VRB10G20KT 3000 TSRA SCT060CB PROB30 TEMPO
             2013/2014 VRB15G35KT 1200 TSRA TEMPO 2015/2021 4000
             SHRA SCT060CB PROB40 TEMPO 2015/2020 VRB10G20KT 2000
             TSRA TEMPO 2105/2112 26010KT 4000 SHRA SCT050CB
             PROB30 TEMPO 2106/2111 2000 TSRA=
TAF     LSGS 201425Z 2015/2024 25012KT 9999 FEW080 FEW100TCU BKN120
             PROB40 TEMPO 2017/2024 24015G35KT TSRA FEW030
             SCT050CB BKN080=
TAF     LSZA 201425Z 2015/2024 19006KT 9999 FEW040TCU SCT050 TEMPO
             2015/2024 20015G25KT 3000 TSRA SCT050CB=
TAF     LSZB 201425Z 2015/2024 32007KT 9999 FEW060 BKN070TCU PROB40
             TEMPO 2015/2024 27015G30KT 3000 TSRA SCT050CB=
TAF     LSZG 201425Z 2015/2024 23005KT 9999 FEW040 SCT100 TEMPO
             2015/2024 SHRA SCT040TCU PROB40 TEMPO 2015/2024
             30015G25KT 4000 TSRA FEW040CB BKN060=
TAF     LSZL 201125Z 2012/2021 VRB03KT 9999 SCT060 PROB40 TEMPO
             2013/2021 27012G30KT 4000 TSRA SCT050CB=
TAF     LSZR 201425Z 2015/2024 VRB03KT 9999 FEW060 PROB40 TEMPO
             2015/2024 27015G30KT 3000 TSRA SCT050CB=
TAF     LSGC 201425Z 2015/2024 23005KT 9999 FEW018 FEW035TCU BKN045
             PROB40 TEMPO 2015/2024 29015G35KT 2500 TSRA BKN035CB=
TAF     LSZC 201425Z 2015/2024 VRB03KT 9999 FEW060 TEMPO 2015/2024
             SHRA SCT050TCU TEMPO 2015/2024 26015G25KT 4000 TSRA
             SCT050CB=
TAF     LSZS 201425Z 2015/2024 23010KT 9999 FEW060 TX18/2013Z TEMPO
             2015/2024 SHRA SCT050TCU PROB40 2015/2024 04015G25KT
             4500 TSRA SCT050CB BECMG 2017/2019 VRB03KT=
TAF     LSMA 200925Z 2010/2116 VRB03KT 9999 FEW060 TEMPO 2012/2016
             05012KT TEMPO 2012/2103 23015G35KT 3000 TSRA SCT050CB
             TEMPO 2100/2116 SHRA SCT025TCU BKN040=
TAF     LSMD 200925Z 2010/2116 VRB03KT 9999 FEW060 PROB40 TEMPO
             2014/2103 24015G30KT 3000 TSRA SCT050CB TEMPO
             2100/2116 SHRA SCT025TCU BKN040=
TAF     LSME 200925Z 2010/2116 VRB03KT 9999 FEW060 PROB40 TEMPO
             2013/2103 24015G30KT 3000 TSRA SCT050CB TEMPO
             2100/2116 SHRA SCT025TCU BKN040=
TAF     LSMM 200925Z 2010/2116 VRB03KT 9999 FEW060 TEMPO 2012/2103
             27015G35KT 3000 TSRA SCT050CB TEMPO 2100/2116 SHRA
             SCT025TCU BKN040=
TAF     LSMP 200925Z 2010/2116 VRB03KT 9999 FEW070 PROB40 TEMPO
             2013/2017 VRB15G30KT 4000 TSRA SCT040CB=
Actualisé le vendredi 20 juillet 2018 à 18h02